TimeEST,TemperatureF,Dew PointF,Humidity,Sea Level PressureIn,VisibilityMPH,Wind Direction,Wind SpeedMPH,Gust SpeedMPH,PrecipitationIn,Events,Conditions,WindDirDegrees,DateUTC
12:53 AM,50.0,44.1,80,30.20,10.0,North,4.6,-,N/A,,Mostly Cloudy,360,2012-11-20 05:53:00
1:53 AM,48.9,43.0,80,30.18,10.0,NE,3.5,-,N/A,,Partly Cloudy,50,2012-11-20 06:53:00
3:53 AM,48.0,42.1,80,30.17,10.0,NNE,3.5,-,N/A,,Partly Cloudy,20,2012-11-20 08:53:00
4:53 AM,48.9,42.1,77,30.16,10.0,NE,3.5,-,N/A,,Overcast,50,2012-11-20 09:53:00
5:53 AM,46.9,42.1,83,30.17,10.0,NNE,4.6,-,N/A,,Overcast,20,2012-11-20 10:53:00
6:53 AM,46.9,41.0,80,30.17,10.0,NNE,4.6,-,N/A,,Clear,20,2012-11-20 11:53:00
7:53 AM,48.0,42.1,80,30.19,10.0,NE,3.5,-,N/A,,Clear,40,2012-11-20 12:53:00
8:53 AM,48.9,41.0,74,30.21,10.0,NE,4.6,-,N/A,,Clear,40,2012-11-20 13:53:00
9:53 AM,52.0,41.0,66,30.22,10.0,Variable,4.6,-,N/A,,Partly Cloudy,0,2012-11-20 14:53:00
10:53 AM,53.1,41.0,64,30.19,10.0,East,3.5,-,N/A,,Overcast,90,2012-11-20 15:53:00
11:53 AM,55.9,42.1,60,30.17,10.0,Calm,Calm,-,N/A,,Clear,0,2012-11-20 16:53:00
12:53 PM,57.9,42.1,56,30.12,10.0,Calm,Calm,-,N/A,,Clear,0,2012-11-20 17:53:00
1:53 PM,61.0,42.1,50,30.09,10.0,Variable,3.5,-,N/A,,Clear,0,2012-11-20 18:53:00
2:53 PM,64.0,39.9,41,30.07,10.0,NE,3.5,-,N/A,,Clear,40,2012-11-20 19:53:00
3:53 PM,63.0,39.9,43,30.06,10.0,South,3.5,-,N/A,,Clear,190,2012-11-20 20:53:00
4:53 PM,61.0,41.0,48,30.07,10.0,South,4.6,-,N/A,,Clear,180,2012-11-20 21:53:00
5:53 PM,57.9,41.0,53,30.08,10.0,Calm,Calm,-,N/A,,Clear,0,2012-11-20 22:53:00
6:53 PM,57.0,41.0,55,30.09,10.0,Calm,Calm,-,N/A,,Clear,0,2012-11-20 23:53:00
7:53 PM,55.0,41.0,59,30.09,10.0,Calm,Calm,-,N/A,,Clear,0,2012-11-21 00:53:00
8:53 PM,51.1,41.0,68,30.10,10.0,Calm,Calm,-,N/A,,Clear,0,2012-11-21 01:53:00
9:53 PM,48.9,41.0,74,30.11,10.0,Calm,Calm,-,N/A,,Clear,0,2012-11-21 02:53:00
10:53 PM,48.0,39.9,74,30.12,10.0,Calm,Calm,-,N/A,,Clear,0,2012-11-21 03:53:00
11:53 PM,46.0,39.9,79,30.12,10.0,Calm,Calm,-,N/A,,Clear,0,2012-11-21 04:53:00